Time;durP1;ratioP1;P1;durP2;ratioP2;P2;SDS_P1;SDS_P2;PMS_P1;PMS_P2;Temp;Humidity;BMP_temperature;BMP_pressure;BME280_temperature;BME280_humidity;BME280_pressure;Samples;Min_cycle;Max_cycle;Signal;HPM_P1;HPM_P2
2021/03/22 00:00:15;;;;;;;6.33;2.70;;;1.90;1.00;;;;;;5069170;28;20220;-70
2021/03/22 00:02:40;;;;;;;3.17;2.50;;;1.90;1.00;;;;;;5070962;28;20207;-69
2021/03/22 00:05:06;;;;;;;5.17;2.70;;;1.90;1.00;;;;;;5069464;28;20757;-69
2021/03/22 00:07:32;;;;;;;4.85;2.47;;;1.80;1.00;;;;;;5069033;28;20610;-69
2021/03/22 00:09:58;;;;;;;3.00;2.30;;;1.80;1.00;;;;;;5070678;28;20218;-69
2021/03/22 00:12:23;;;;;;;3.80;2.50;;;1.70;1.00;;;;;;5071460;28;20188;-69
2021/03/22 00:14:49;;;;;;;3.30;2.37;;;1.70;1.00;;;;;;5069042;28;20650;-69
2021/03/22 00:17:14;;;;;;;4.30;2.43;;;1.60;1.00;;;;;;5069482;28;20249;-69
2021/03/22 00:19:40;;;;;;;3.33;3.03;;;1.60;1.00;;;;;;5069339;28;20265;-68
2021/03/22 00:22:05;;;;;;;2.67;2.47;;;1.50;1.00;;;;;;5068252;28;20220;-69
2021/03/22 00:24:31;;;;;;;3.50;2.30;;;1.50;1.00;;;;;;5069280;28;20166;-69
2021/03/22 00:26:56;;;;;;;2.73;2.20;;;1.50;1.00;;;;;;5069854;28;20187;-68
2021/03/22 00:29:22;;;;;;;2.53;2.30;;;1.40;1.00;;;;;;5069578;28;20190;-69
2021/03/22 00:31:47;;;;;;;2.93;2.13;;;1.40;1.00;;;;;;5068971;28;20698;-68
2021/03/22 00:34:13;;;;;;;2.10;1.90;;;1.40;1.00;;;;;;5071508;28;20273;-69
2021/03/22 00:36:38;;;;;;;3.90;2.83;;;1.40;1.00;;;;;;5080364;28;20255;-69
2021/03/22 00:39:05;;;;;;;2.93;2.37;;;1.40;1.00;;;;;;5071776;28;20241;-68
2021/03/22 00:41:30;;;;;;;4.55;2.47;;;1.30;1.00;;;;;;5070753;28;20187;-69
2021/03/22 00:43:56;;;;;;;2.77;2.50;;;1.40;1.00;;;;;;5069681;28;20319;-68
2021/03/22 00:46:21;;;;;;;3.23;2.33;;;1.40;1.00;;;;;;5070424;28;20252;-68
2021/03/22 00:48:48;;;;;;;2.50;2.30;;;1.40;1.00;;;;;;5069483;28;20187;-69
2021/03/22 00:51:14;;;;;;;4.43;2.60;;;1.40;1.00;;;;;;5069429;28;20244;-69
2021/03/22 00:53:39;;;;;;;3.57;2.50;;;1.30;1.00;;;;;;5069584;28;20188;-69
2021/03/22 00:56:05;;;;;;;3.53;2.20;;;1.30;1.00;;;;;;5068581;28;20904;-69
2021/03/22 00:58:31;;;;;;;4.55;2.72;;;1.30;1.00;;;;;;5068300;28;20707;-69
2021/03/22 01:00:59;;;;;;;5.80;3.13;;;1.30;1.00;;;;;;5068194;28;20193;-69
2021/03/22 01:03:29;;;;;;;4.85;2.58;;;1.30;1.00;;;;;;5068300;28;20235;-69
2021/03/22 01:05:56;;;;;;;5.90;2.90;;;1.40;1.00;;;;;;5070152;28;20222;-68
2021/03/22 01:08:25;;;;;;;3.20;2.35;;;1.40;1.00;;;;;;5068712;28;20198;-69
2021/03/22 01:10:57;;;;;;;6.10;2.70;;;1.30;1.00;;;;;;5066868;28;20240;-70
2021/03/22 01:13:28;;;;;;;4.38;2.75;;;1.40;1.00;;;;;;5068918;28;20191;-68
2021/03/22 01:15:54;;;;;;;4.53;2.85;;;1.40;1.00;;;;;;5067109;28;20190;-69
2021/03/22 01:18:23;;;;;;;3.38;2.33;;;1.40;1.00;;;;;;5064255;28;20241;-69
2021/03/22 01:20:53;;;;;;;2.50;2.30;;;1.40;1.00;;;;;;5069314;28;20202;-69
2021/03/22 01:23:18;;;;;;;3.72;2.78;;;1.40;1.00;;;;;;5068757;28;20611;-69
2021/03/22 01:25:44;;;;;;;5.93;2.60;;;1.30;1.00;;;;;;5068208;28;20184;-69
2021/03/22 01:28:11;;;;;;;4.50;2.40;;;1.30;1.00;;;;;;5068904;28;20238;-68
2021/03/22 01:30:42;;;;;;;8.32;3.20;;;1.20;1.00;;;;;;5068804;28;20181;-69
2021/03/22 01:33:12;;;;;;;3.50;2.55;;;1.20;1.00;;;;;;5066630;28;20198;-69
2021/03/22 01:35:38;;;;;;;4.47;2.85;;;1.10;1.00;;;;;;5068125;28;20178;-69
2021/03/22 01:38:04;;;;;;;3.80;3.03;;;1.10;1.00;;;;;;5069058;28;20186;-69
2021/03/22 01:40:51;;;;;;;4.50;2.55;;;1.10;1.00;;;;;;5068944;28;20185;-72
2021/03/22 01:43:53;;;;;;;4.05;2.85;;;1.00;1.00;;;;;;5068187;28;20223;-69
2021/03/22 01:46:20;;;;;;;3.22;2.92;;;1.00;1.00;;;;;;5065337;28;20202;-69
2021/03/22 01:48:45;;;;;;;3.60;2.58;;;0.90;1.00;;;;;;5068738;28;20212;-69
2021/03/22 01:51:11;;;;;;;7.70;2.80;;;0.90;1.00;;;;;;5068625;28;20188;-69
2021/03/22 01:53:37;;;;;;;6.97;3.97;;;0.90;1.00;;;;;;5069366;28;20201;-69
2021/03/22 01:56:09;;;;;;;5.20;2.77;;;0.90;1.00;;;;;;5068806;28;20258;-69
2021/03/22 01:58:35;;;;;;;2.53;2.33;;;0.90;1.00;;;;;;5069419;28;20188;-69
2021/03/22 02:01:00;;;;;;;3.67;2.90;;;0.80;1.00;;;;;;5067541;28;20181;-71
2021/03/22 02:03:26;;;;;;;7.70;3.10;;;0.90;1.00;;;;;;5068340;28;20669;-69
2021/03/22 02:05:51;;;;;;;2.97;2.37;;;0.90;1.00;;;;;;5071997;28;20551;-69
2021/03/22 02:08:26;;;;;;;8.60;2.93;;;0.90;1.00;;;;;;5068354;28;20217;-73
2021/03/22 02:10:52;;;;;;;6.82;3.17;;;0.90;1.00;;;;;;5068921;28;20402;-70
2021/03/22 02:13:24;;;;;;;3.13;2.63;;;0.90;1.00;;;;;;5067103;28;20596;-69
2021/03/22 02:15:57;;;;;;;6.30;3.15;;;1.00;1.00;;;;;;5069195;28;20219;-68
2021/03/22 02:18:34;;;;;;;5.22;2.90;;;1.00;1.00;;;;;;5067144;28;20194;-69
2021/03/22 02:21:27;;;;;;;8.85;3.20;;;1.00;1.00;;;;;;5067547;28;20248;-69
2021/03/22 02:24:22;;;;;;;8.30;3.60;;;1.00;1.00;;;;;;5067832;28;20206;-69
2021/03/22 02:27:25;;;;;;;10.18;2.90;;;1.20;3.50;;;;;;5066370;28;20187;-69
2021/03/22 02:30:12;;;;;;;6.90;3.28;;;1.30;10.00;;;;;;5068128;28;20205;-69
2021/03/22 02:33:14;;;;;;;8.35;3.35;;;1.30;9.00;;;;;;5070447;28;20195;-69
2021/03/22 02:35:44;;;;;;;7.47;3.53;;;1.40;9.60;;;;;;5074809;28;20279;-69
2021/03/22 02:38:35;;;;;;;5.25;3.55;;;1.50;9.10;;;;;;5077367;28;20277;-69
2021/03/22 02:41:23;;;;;;;8.40;3.85;;;1.50;11.00;;;;;;5061842;28;20740;-70
2021/03/22 02:44:10;;;;;;;9.57;3.53;;;1.60;14.00;;;;;;5071745;28;20290;-70
2021/03/22 02:46:37;;;;;;;10.70;4.40;;;1.80;20.80;;;;;;5071322;28;20239;-70
2021/03/22 02:49:06;;;;;;;13.80;4.45;;;1.80;18.60;;;;;;5072756;28;20234;-69
2021/03/22 02:51:57;;;;;;;6.97;3.63;;;1.90;20.10;;;;;;5070631;28;20202;-69
2021/03/22 02:54:53;;;;;;;10.07;4.60;;;2.00;18.40;;;;;;5071535;28;20200;-69
2021/03/22 02:57:50;;;;;;;12.18;4.00;;;2.10;20.20;;;;;;5069884;28;20274;-69
2021/03/22 03:00:23;;;;;;;11.40;4.65;;;2.20;23.30;;;;;;5064749;28;20658;-70
2021/03/22 03:02:49;;;;;;;12.35;4.70;;;2.30;26.10;;;;;;5071053;28;20227;-69
2021/03/22 03:05:21;;;;;;;17.70;5.13;;;2.40;24.90;;;;;;5071628;28;20669;-69
2021/03/22 03:07:47;;;;;;;20.15;5.75;;;2.50;28.30;;;;;;5067125;28;20788;-69
2021/03/22 03:10:16;;;;;;;16.40;5.20;;;2.60;32.20;;;;;;5072096;28;20200;-70
2021/03/22 03:12:42;;;;;;;15.88;5.95;;;2.60;35.50;;;;;;5067850;28;20256;-69
2021/03/22 03:15:09;;;;;;;15.45;6.50;;;2.70;38.10;;;;;;5071687;28;20670;-72
2021/03/22 03:17:35;;;;;;;23.25;6.70;;;2.70;44.60;;;;;;5071008;28;20192;-69
2021/03/22 03:20:05;;;;;;;13.80;5.57;;;2.80;45.10;;;;;;5071440;28;20180;-68
2021/03/22 03:22:31;;;;;;;14.13;5.10;;;2.80;44.00;;;;;;5071358;28;20857;-69
2021/03/22 03:24:56;;;;;;;15.57;6.57;;;2.80;43.40;;;;;;5069825;28;20238;-69
2021/03/22 03:27:22;;;;;;;13.07;5.67;;;2.90;42.00;;;;;;5071090;28;20189;-69
2021/03/22 03:29:48;;;;;;;20.77;5.83;;;2.90;38.70;;;;;;5070976;28;20183;-69
2021/03/22 03:32:17;;;;;;;12.17;5.60;;;3.00;35.60;;;;;;5070356;28;20224;-69
2021/03/22 03:34:43;;;;;;;20.30;6.47;;;3.00;29.60;;;;;;5070431;28;20594;-70
2021/03/22 03:37:09;;;;;;;12.17;5.23;;;3.00;27.30;;;;;;5070353;28;20195;-69
2021/03/22 03:39:35;;;;;;;8.98;4.97;;;3.00;26.80;;;;;;5069286;28;20438;-69
2021/03/22 03:42:01;;;;;;;14.30;6.30;;;3.10;26.20;;;;;;5070153;28;20220;-69
2021/03/22 03:44:27;;;;;;;18.27;5.82;;;3.00;23.30;;;;;;5070782;28;20692;-69
2021/03/22 03:46:53;;;;;;;12.68;5.15;;;3.10;21.90;;;;;;5066352;28;20182;-69
2021/03/22 03:49:18;;;;;;;15.03;5.20;;;3.10;22.90;;;;;;5070870;28;20631;-69
2021/03/22 03:51:44;;;;;;;11.07;5.50;;;3.10;22.80;;;;;;5070769;28;20204;-69
2021/03/22 03:54:10;;;;;;;13.97;5.73;;;3.00;22.20;;;;;;5070823;28;20266;-69
2021/03/22 03:56:36;;;;;;;13.88;5.00;;;3.00;25.00;;;;;;5068265;28;20193;-69
2021/03/22 03:59:03;;;;;;;12.60;5.00;;;3.00;24.40;;;;;;5069869;28;20182;-69
2021/03/22 04:01:28;;;;;;;15.63;5.28;;;3.10;22.40;;;;;;5065055;28;21516;-68
2021/03/22 04:03:55;;;;;;;18.13;6.50;;;3.10;22.30;;;;;;5070118;28;20227;-69
2021/03/22 04:06:26;;;;;;;14.55;5.80;;;3.10;18.40;;;;;;5070656;28;20922;-69
2021/03/22 04:08:59;;;;;;;13.35;5.95;;;3.10;18.50;;;;;;5070085;28;20198;-69
2021/03/22 04:11:26;;;;;;;16.20;5.53;;;3.10;19.10;;;;;;5068824;28;20181;-69
2021/03/22 04:13:52;;;;;;;9.50;5.05;;;3.10;16.60;;;;;;5070158;28;20185;-69
2021/03/22 04:16:18;;;;;;;17.67;5.72;;;3.10;15.80;;;;;;5070491;28;20677;-69
2021/03/22 04:18:44;;;;;;;14.20;5.67;;;3.10;12.50;;;;;;5069093;28;20185;-69
2021/03/22 04:21:14;;;;;;;16.20;5.80;;;3.10;11.30;;;;;;5067364;28;20713;-69
2021/03/22 04:23:45;;;;;;;13.70;5.90;;;3.10;12.50;;;;;;5068215;28;20807;-69
2021/03/22 04:26:12;;;;;;;16.02;5.70;;;3.10;11.90;;;;;;5070019;28;20218;-69
2021/03/22 04:28:38;;;;;;;17.92;5.85;;;3.10;12.30;;;;;;5069431;28;20243;-69
2021/03/22 04:31:04;;;;;;;11.68;5.32;;;3.10;14.50;;;;;;5070440;28;20192;-69
2021/03/22 04:33:30;;;;;;;11.18;5.05;;;3.10;13.70;;;;;;5069194;28;20235;-69
2021/03/22 04:35:56;;;;;;;10.30;5.22;;;3.10;12.30;;;;;;5068414;28;20181;-69
2021/03/22 04:38:21;;;;;;;9.30;5.10;;;3.20;15.40;;;;;;5070423;28;20190;-70
2021/03/22 04:40:47;;;;;;;9.53;5.20;;;3.20;13.00;;;;;;5068340;28;20188;-69
2021/03/22 04:43:13;;;;;;;9.90;5.97;;;3.20;9.80;;;;;;5069511;28;20569;-69
2021/03/22 04:45:39;;;;;;;13.25;4.50;;;3.10;10.20;;;;;;5070900;28;20180;-69
2021/03/22 04:48:06;;;;;;;12.57;5.15;;;3.10;12.20;;;;;;5071933;28;20557;-69
2021/03/22 04:50:31;;;;;;;17.42;5.60;;;3.10;15.20;;;;;;5069471;28;20184;-69
2021/03/22 04:52:57;;;;;;;23.70;7.43;;;3.10;13.80;;;;;;5068505;28;20200;-68
2021/03/22 04:55:24;;;;;;;15.00;5.50;;;3.10;18.80;;;;;;5070608;28;20165;-69
2021/03/22 04:57:50;;;;;;;17.70;5.70;;;3.10;19.00;;;;;;5059234;28;20656;-71
2021/03/22 05:00:29;;;;;;;15.43;5.40;;;3.10;15.70;;;;;;5067381;28;20192;-70
2021/03/22 05:02:55;;;;;;;11.73;5.75;;;3.10;16.10;;;;;;5067443;28;20318;-69
2021/03/22 05:05:22;;;;;;;14.17;5.70;;;3.10;15.20;;;;;;5066885;28;20272;-69
2021/03/22 05:07:47;;;;;;;14.02;5.35;;;3.10;15.70;;;;;;5072763;28;20434;-69
2021/03/22 05:10:20;;;;;;;14.50;5.20;;;3.20;17.60;;;;;;5067805;28;20577;-70
2021/03/22 05:12:45;;;;;;;13.18;4.90;;;3.20;16.50;;;;;;5069186;28;20411;-69
2021/03/22 05:15:11;;;;;;;16.47;5.70;;;3.20;17.10;;;;;;5065606;28;20199;-69
2021/03/22 05:17:37;;;;;;;10.73;5.37;;;3.30;18.10;;;;;;5060076;28;20184;-71
2021/03/22 05:20:06;;;;;;;14.37;5.30;;;3.30;14.50;;;;;;5057996;28;20451;-70
2021/03/22 05:22:31;;;;;;;12.07;5.47;;;3.40;11.30;;;;;;5059646;28;20241;-70
2021/03/22 05:24:57;;;;;;;14.93;5.73;;;3.40;7.40;;;;;;5060715;28;20265;-69
2021/03/22 05:27:22;;;;;;;15.73;5.93;;;3.50;1.40;;;;;;5060387;28;21024;-69
2021/03/22 05:29:48;;;;;;;18.70;5.30;;;3.50;1.00;;;;;;5058875;28;20189;-70
2021/03/22 05:32:34;;;;;;;19.07;6.07;;;3.50;1.00;;;;;;5059764;28;20200;-69
2021/03/22 05:35:02;;;;;;;19.25;5.43;;;3.50;1.00;;;;;;5059729;28;20177;-68
2021/03/22 05:37:28;;;;;;;13.88;5.40;;;3.60;1.00;;;;;;5059335;28;20191;-70
2021/03/22 05:39:54;;;;;;;14.83;5.47;;;3.60;1.00;;;;;;5058109;28;20188;-70
2021/03/22 05:42:52;;;;;;;15.33;6.27;;;3.60;1.00;;;;;;5067741;28;20221;-68
2021/03/22 05:45:47;;;;;;;13.43;5.30;;;3.70;1.00;;;;;;5069494;28;20761;-69
2021/03/22 05:48:44;;;;;;;12.85;5.70;;;3.70;1.00;;;;;;5068500;28;20326;-68
2021/03/22 05:51:51;;;;;;;14.23;4.88;;;3.60;1.00;;;;;;5069422;28;20183;-69
2021/03/22 05:54:47;;;;;;;18.58;5.90;;;3.60;1.00;;;;;;5058121;28;20197;-71
2021/03/22 05:57:21;;;;;;;18.77;5.47;;;3.60;1.00;;;;;;5072652;28;20188;-69
2021/03/22 06:00:03;;;;;;;12.90;5.38;;;3.60;1.00;;;;;;5075697;28;20183;-69
2021/03/22 06:02:47;;;;;;;16.27;6.53;;;3.70;1.00;;;;;;5067197;28;20208;-69
2021/03/22 06:05:31;;;;;;;17.30;5.95;;;3.70;1.00;;;;;;5071114;28;20263;-69
2021/03/22 06:08:03;;;;;;;13.38;5.28;;;3.80;1.00;;;;;;5072898;28;20262;-68
2021/03/22 06:10:42;;;;;;;15.85;6.68;;;3.70;1.00;;;;;;5070237;28;20189;-68
2021/03/22 06:13:08;;;;;;;17.67;6.80;;;3.70;1.00;;;;;;5072884;28;20192;-69
2021/03/22 06:15:58;;;;;;;21.35;6.80;;;3.80;1.00;;;;;;5072477;28;20197;-69
2021/03/22 06:18:58;;;;;;;17.85;6.78;;;3.90;1.00;;;;;;5073296;28;20185;-69
2021/03/22 06:21:27;;;;;;;15.02;6.38;;;3.80;1.00;;;;;;5074118;28;20203;-69
2021/03/22 06:23:52;;;;;;;14.77;6.28;;;4.00;1.00;;;;;;5072751;28;20709;-70
2021/03/22 06:26:39;;;;;;;23.97;6.90;;;4.00;1.00;;;;;;5070982;28;20180;-70
2021/03/22 06:29:25;;;;;;;15.98;6.30;;;4.00;1.00;;;;;;5073072;28;20269;-69
2021/03/22 06:31:54;;;;;;;11.88;6.18;;;4.00;1.00;;;;;;5071124;28;20209;-69
2021/03/22 06:34:46;;;;;;;13.48;6.47;;;4.10;1.00;;;;;;5072110;28;20721;-69
2021/03/22 06:37:14;;;;;;;24.55;6.45;;;4.10;1.00;;;;;;5071233;28;20181;-69
2021/03/22 06:39:44;;;;;;;13.35;5.97;;;4.20;1.00;;;;;;5072318;28;20178;-69
2021/03/22 06:42:35;;;;;;;12.63;5.88;;;4.30;1.00;;;;;;5071390;28;20220;-69
2021/03/22 06:45:03;;;;;;;16.75;6.20;;;4.40;1.00;;;;;;5070274;28;20201;-68
2021/03/22 06:47:33;;;;;;;13.52;5.82;;;4.40;1.00;;;;;;5072172;28;20200;-69
2021/03/22 06:50:24;;;;;;;14.57;5.75;;;4.40;1.00;;;;;;5070739;28;20232;-68
2021/03/22 06:52:50;;;;;;;12.48;5.43;;;4.50;1.00;;;;;;5072578;28;20223;-69
2021/03/22 06:55:35;;;;;;;14.23;6.43;;;4.60;1.00;;;;;;5077772;28;20212;-70
2021/03/22 06:58:01;;;;;;;18.63;6.55;;;4.70;1.00;;;;;;5072435;28;20224;-69
2021/03/22 07:00:30;;;;;;;12.95;6.35;;;4.70;1.00;;;;;;5073548;28;20635;-69
2021/03/22 07:03:23;;;;;;;13.95;6.90;;;4.80;1.00;;;;;;5073505;28;20232;-68
2021/03/22 07:05:49;;;;;;;11.55;6.32;;;4.80;1.00;;;;;;5072006;28;20221;-69
2021/03/22 07:08:19;;;;;;;11.87;6.50;;;5.00;1.00;;;;;;5073795;28;20619;-69
2021/03/22 07:11:11;;;;;;;13.60;6.10;;;5.00;1.00;;;;;;5072250;28;20703;-69
2021/03/22 07:13:37;;;;;;;19.60;7.07;;;5.10;1.00;;;;;;5073320;28;20662;-69
2021/03/22 07:16:25;;;;;;;17.98;7.03;;;5.10;1.00;;;;;;5072097;28;20636;-69
2021/03/22 07:19:14;;;;;;;19.02;6.85;;;5.10;1.00;;;;;;5062029;28;20521;-69
2021/03/22 07:22:18;;;;;;;19.88;7.47;;;5.10;1.00;;;;;;5072329;28;20212;-71
2021/03/22 07:24:59;;;;;;;17.23;8.10;;;5.00;1.00;;;;;;5073566;28;20173;-69
2021/03/22 07:27:34;;;;;;;15.18;7.70;;;5.10;1.00;;;;;;5072476;28;20679;-69
2021/03/22 07:30:18;;;;;;;15.95;6.90;;;5.20;1.00;;;;;;5072002;28;20528;-71
2021/03/22 07:32:48;;;;;;;19.17;7.05;;;5.20;1.00;;;;;;5073367;28;20177;-70
2021/03/22 07:35:48;;;;;;;17.23;7.13;;;5.30;1.00;;;;;;5072232;28;20169;-68
2021/03/22 07:38:44;;;;;;;16.30;6.68;;;5.40;1.00;;;;;;5073594;28;20192;-70
2021/03/22 07:41:25;;;;;;;11.18;6.38;;;5.50;1.00;;;;;;5052071;28;20276;-69
2021/03/22 07:44:02;;;;;;;16.73;7.45;;;5.60;99.90;;;;;;5056526;28;20209;-70
2021/03/22 07:47:04;;;;;;;17.20;6.97;;;5.60;99.90;;;;;;5073606;28;20149;-72
2021/03/22 07:49:44;;;;;;;14.68;6.43;;;5.60;99.90;;;;;;5071553;28;20631;-71
2021/03/22 07:52:18;;;;;;;20.13;6.60;;;5.50;1.00;;;;;;5073538;28;20159;-70
2021/03/22 07:54:50;;;;;;;14.80;7.55;;;5.50;99.90;;;;;;5072201;28;20833;-69
2021/03/22 07:57:39;;;;;;;19.00;6.75;;;5.60;99.90;;;;;;5077386;28;20575;-70
2021/03/22 08:00:26;;;;;;;13.30;6.63;;;5.60;99.90;;;;;;5078084;28;20978;-68
2021/03/22 08:03:24;;;;;;;14.43;6.75;;;5.70;99.90;;;;;;5070833;28;20274;-68
2021/03/22 08:06:10;;;;;;;16.92;6.95;;;5.80;99.90;;;;;;5021542;28;20201;-69
2021/03/22 08:08:51;;;;;;;15.18;6.80;;;6.00;99.90;;;;;;5065953;28;20539;-69
2021/03/22 08:11:39;;;;;;;15.15;7.55;;;6.20;1.00;;;;;;5070480;28;20266;-69
2021/03/22 08:14:10;;;;;;;17.27;7.07;;;6.30;1.00;;;;;;5068443;28;20195;-69
2021/03/22 08:17:01;;;;;;;21.77;8.30;;;6.50;99.90;;;;;;5069487;28;20177;-71
2021/03/22 08:19:49;;;;;;;13.10;6.80;;;6.50;6.20;;;;;;5069414;28;20587;-69
2021/03/22 08:22:44;;;;;;;17.40;6.55;;;6.60;99.90;;;;;;5070798;28;20247;-69
2021/03/22 08:25:42;;;;;;;12.73;6.25;;;6.60;1.00;;;;;;5036373;28;20843;-71
2021/03/22 08:28:19;;;;;;;12.30;6.82;;;6.80;1.00;;;;;;5067339;28;20309;-70
2021/03/22 08:31:05;;;;;;;13.70;6.63;;;7.40;1.00;;;;;;5069717;28;20181;-69
2021/03/22 08:33:51;;;;;;;13.13;6.73;;;7.50;1.00;;;;;;5069585;28;20803;-71
2021/03/22 08:36:32;;;;;;;14.37;7.20;;;7.80;99.90;;;;;;5054260;28;20465;-69
2021/03/22 08:39:25;;;;;;;11.53;6.30;;;8.30;1.00;;;;;;5070809;28;20443;-69
2021/03/22 08:41:56;;;;;;;13.07;7.80;;;8.90;99.90;;;;;;5066973;28;20431;-69
2021/03/22 08:44:25;;;;;;;13.40;6.83;;;9.00;1.00;;;;;;5069919;28;20952;-69
2021/03/22 08:47:03;;;;;;;10.47;6.27;;;8.70;1.00;;;;;;5070579;28;20767;-69
2021/03/22 08:49:53;;;;;;;15.87;7.60;;;8.60;1.00;;;;;;5069206;28;20486;-69
2021/03/22 08:52:29;;;;;;;11.70;6.93;;;8.50;1.00;;;;;;5069679;28;20408;-69
2021/03/22 08:55:06;;;;;;;16.70;6.67;;;8.30;99.90;;;;;;5053256;28;20434;-69
2021/03/22 08:57:38;;;;;;;10.27;6.73;;;8.10;1.00;;;;;;5078974;28;20425;-69
2021/03/22 09:00:24;;;;;;;16.23;8.30;;;8.00;1.00;;;;;;5071188;28;20415;-69
2021/03/22 09:02:55;;;;;;;10.10;7.03;;;8.40;1.00;;;;;;5069306;28;20466;-70
2021/03/22 09:05:23;;;;;;;12.33;6.30;;;9.00;1.00;;;;;;5078287;28;20493;-68
2021/03/22 09:07:49;;;;;;;11.30;7.13;;;9.20;99.90;;;;;;5070246;28;20430;-68
2021/03/22 09:10:21;;;;;;;9.93;6.30;;;9.30;99.90;;;;;;5072136;28;20911;-69
2021/03/22 09:12:47;;;;;;;12.60;6.47;;;9.80;99.90;;;;;;5076872;28;20188;-69
2021/03/22 09:15:38;;;;;;;9.37;6.57;;;9.90;51.60;;;;;;5070059;28;20425;-69
2021/03/22 09:18:04;;;;;;;13.53;9.30;;;10.50;1.00;;;;;;5066549;28;21238;-69
2021/03/22 09:20:51;;;;;;;15.60;7.07;;;10.70;1.00;;;;;;5069093;28;20419;-69
2021/03/22 09:23:39;;;;;;;12.97;6.80;;;11.10;1.00;;;;;;5069141;28;20203;-69
2021/03/22 09:26:06;;;;;;;11.80;7.60;;;11.80;1.00;;;;;;5068970;28;21259;-69
2021/03/22 09:28:39;;;;;;;10.43;6.40;;;12.20;1.00;;;;;;5068398;28;20754;-69
2021/03/22 09:31:16;;;;;;;12.37;6.80;;;12.50;1.00;;;;;;5068519;28;20443;-69
2021/03/22 09:34:00;;;;;;;7.67;6.73;;;12.60;1.00;;;;;;5069825;28;20466;-70
2021/03/22 09:36:41;;;;;;;11.97;7.27;;;12.40;99.90;;;;;;5068493;28;20569;-70
2021/03/22 09:39:18;;;;;;;8.80;7.07;;;12.20;99.90;;;;;;5066503;28;20456;-70
2021/03/22 09:41:52;;;;;;;11.97;7.57;;;12.10;99.90;;;;;;5065397;28;20419;-69
2021/03/22 09:44:20;;;;;;;10.63;7.00;;;12.20;99.90;;;;;;5049303;28;20411;-69
2021/03/22 09:47:14;;;;;;;18.53;8.57;;;11.90;99.90;;;;;;5058073;28;20467;-68
2021/03/22 09:50:01;;;;;;;10.10;7.70;;;11.50;99.90;;;;;;5067505;28;20531;-70
2021/03/22 09:52:27;;;;;;;11.40;6.80;;;11.50;99.90;;;;;;5068653;28;20522;-69
2021/03/22 09:54:53;;;;;;;11.40;6.27;;;11.70;99.90;;;;;;5067764;28;20439;-69
2021/03/22 09:57:40;;;;;;;12.53;6.60;;;11.80;99.90;;;;;;5069888;28;20273;-69
2021/03/22 10:00:16;;;;;;;13.40;7.13;;;12.20;99.90;;;;;;5069380;28;20447;-69
2021/03/22 10:03:26;;;;;;;9.40;6.70;;;12.60;99.90;;;;;;5070826;28;20977;-69
2021/03/22 10:05:51;;;;;;;7.90;6.60;;;13.10;99.90;;;;;;5069576;28;20783;-69
2021/03/22 10:08:26;;;;;;;7.73;6.63;;;13.90;99.90;;;;;;5070680;28;20415;-69
2021/03/22 10:10:57;;;;;;;9.10;7.30;;;14.80;99.90;;;;;;5069874;28;20189;-69
2021/03/22 10:13:40;;;;;;;11.17;6.43;;;15.00;99.90;;;;;;5070989;28;20426;-69
2021/03/22 10:16:11;;;;;;;9.63;7.07;;;15.30;99.90;;;;;;5068732;28;20439;-69
2021/03/22 10:18:42;;;;;;;9.17;6.20;;;14.50;99.90;;;;;;5056581;28;20557;-68
2021/03/22 10:21:20;;;;;;;8.73;6.10;;;13.70;99.90;;;;;;5065252;28;20434;-69
2021/03/22 10:23:55;;;;;;;11.93;6.33;;;13.20;99.90;;;;;;5070602;28;20977;-68
2021/03/22 10:26:28;;;;;;;10.77;6.87;;;13.20;99.90;;;;;;5084952;28;20433;-69
2021/03/22 10:29:19;;;;;;;11.13;7.23;;;13.60;99.90;;;;;;5091024;28;20911;-68
2021/03/22 10:31:45;;;;;;;7.50;6.27;;;13.80;99.90;;;;;;5070568;28;20454;-68
2021/03/22 10:34:27;;;;;;;8.10;6.50;;;13.90;99.90;;;;;;5070598;28;20414;-68
2021/03/22 10:36:53;;;;;;;11.40;6.93;;;13.90;99.90;;;;;;5068525;28;21165;-69
2021/03/22 10:39:41;;;;;;;9.93;7.37;;;13.30;99.90;;;;;;5070803;28;20414;-68
2021/03/22 10:42:22;;;;;;;10.30;6.33;;;13.20;99.90;;;;;;5068731;28;20520;-70
2021/03/22 10:44:48;;;;;;;9.77;6.47;;;13.90;99.90;;;;;;5080024;28;20426;-68
2021/03/22 10:47:16;;;;;;;10.23;6.80;;;14.90;99.90;;;;;;5080483;28;20437;-68
2021/03/22 10:49:42;;;;;;;8.57;6.03;;;15.70;99.90;;;;;;5071073;28;20180;-68
2021/03/22 10:52:25;;;;;;;12.27;6.63;;;16.60;99.90;;;;;;5078967;28;20746;-68
2021/03/22 10:54:52;;;;;;;9.03;6.27;;;17.10;99.90;;;;;;5073089;28;20181;-68
2021/03/22 10:57:29;;;;;;;8.67;5.97;;;17.70;99.90;;;;;;5064590;28;20519;-68
2021/03/22 11:00:02;;;;;;;6.80;6.03;;;18.20;99.90;;;;;;5069525;28;20446;-68
2021/03/22 11:02:45;;;;;;;8.60;6.70;;;17.60;99.90;;;;;;5071917;28;20872;-68
2021/03/22 11:05:15;;;;;;;9.03;5.97;;;16.20;99.90;;;;;;5071078;28;20805;-69
2021/03/22 11:07:42;;;;;;;8.00;6.47;;;15.30;99.90;;;;;;5072555;28;20449;-69
2021/03/22 11:10:19;;;;;;;6.40;4.80;;;15.50;99.90;;;;;;5072398;28;20468;-68
2021/03/22 11:12:48;;;;;;;7.77;5.20;;;14.80;99.90;;;;;;5072075;28;20423;-69
2021/03/22 11:15:17;;;;;;;6.70;4.70;;;14.30;99.90;;;;;;5071041;28;21028;-68
2021/03/22 11:17:44;;;;;;;5.00;4.50;;;14.70;99.90;;;;;;5072447;28;20416;-68
2021/03/22 11:20:11;;;;;;;5.27;4.20;;;15.20;99.90;;;;;;5071320;28;20428;-69
2021/03/22 11:22:42;;;;;;;5.57;4.60;;;15.50;99.90;;;;;;5072416;28;20449;-69
2021/03/22 11:25:46;;;;;;;6.50;4.90;;;16.00;99.90;;;;;;5070984;28;20431;-68
2021/03/22 11:28:14;;;;;;;8.00;5.17;;;16.90;99.90;;;;;;5007317;28;20440;-68
2021/03/22 11:30:59;;;;;;;9.43;5.60;;;17.70;99.90;;;;;;4989717;28;20458;-68
2021/03/22 11:33:37;;;;;;;6.73;4.40;;;18.00;99.90;;;;;;5016496;28;20448;-68
2021/03/22 11:36:05;;;;;;;7.57;4.67;;;17.50;99.90;;;;;;5002699;28;21009;-68
2021/03/22 11:38:44;;;;;;;7.50;4.40;;;17.40;99.90;;;;;;5022474;28;20660;-69
2021/03/22 11:41:28;;;;;;;5.33;4.83;;;18.40;99.90;;;;;;5029786;28;20597;-69
2021/03/22 11:44:16;;;;;;;5.10;3.90;;;19.40;99.90;;;;;;5011777;28;20473;-69
2021/03/22 11:46:43;;;;;;;5.73;4.60;;;18.50;99.90;;;;;;5008684;28;20430;-68
2021/03/22 11:49:41;;;;;;;7.43;4.80;;;17.00;99.90;;;;;;5014155;28;20435;-68
2021/03/22 11:52:31;;;;;;;8.40;5.10;;;15.70;99.90;;;;;;5008977;28;20771;-68
2021/03/22 11:55:27;;;;;;;5.63;4.37;;;15.40;99.90;;;;;;5009164;28;20440;-68
2021/03/22 11:57:53;;;;;;;5.63;3.57;;;15.70;99.90;;;;;;5010865;28;20803;-69
2021/03/22 12:00:27;;;;;;;4.30;3.90;;;16.10;99.90;;;;;;5070679;28;20438;-68
2021/03/22 12:02:58;;;;;;;7.90;4.00;;;15.50;99.90;;;;;;5070579;28;20231;-68
2021/03/22 12:05:30;;;;;;;6.63;5.00;;;15.60;99.90;;;;;;5070434;28;20430;-69
2021/03/22 12:07:56;;;;;;;5.27;4.77;;;15.90;99.90;;;;;;5070965;28;20501;-68
2021/03/22 12:10:31;;;;;;;7.90;4.67;;;16.60;99.90;;;;;;5071023;28;20502;-68
2021/03/22 12:13:01;;;;;;;6.13;4.63;;;16.50;99.90;;;;;;5070892;28;20484;-68
2021/03/22 12:15:28;;;;;;;5.20;4.80;;;16.30;99.90;;;;;;5071073;28;20479;-68
2021/03/22 12:18:03;;;;;;;7.10;5.30;;;16.30;99.90;;;;;;5069878;28;21110;-68
2021/03/22 12:20:32;;;;;;;5.63;4.87;;;16.60;99.90;;;;;;5071018;28;20536;-68
2021/03/22 12:22:58;;;;;;;6.60;4.83;;;17.30;99.90;;;;;;5069175;28;20471;-68
2021/03/22 12:25:30;;;;;;;4.67;4.17;;;17.20;99.90;;;;;;5070191;28;20463;-68
2021/03/22 12:27:56;;;;;;;5.07;4.57;;;17.30;99.90;;;;;;5069435;28;20800;-69
2021/03/22 12:30:23;;;;;;;5.23;4.00;;;17.00;99.90;;;;;;5070486;28;20427;-69
2021/03/22 12:32:49;;;;;;;4.63;4.17;;;17.20;99.90;;;;;;5069409;28;20443;-69
2021/03/22 12:35:29;;;;;;;5.30;4.80;;;17.20;99.90;;;;;;5070752;28;20484;-69
2021/03/22 12:37:55;;;;;;;5.17;4.30;;;17.60;99.90;;;;;;5069618;28;20184;-69
2021/03/22 12:40:21;;;;;;;4.70;4.10;;;17.30;99.90;;;;;;5069902;28;20489;-69
2021/03/22 12:42:47;;;;;;;7.17;4.97;;;17.60;99.90;;;;;;5068690;28;20803;-69
2021/03/22 12:45:23;;;;;;;4.93;4.20;;;18.40;99.90;;;;;;5070663;28;20521;-68
2021/03/22 12:47:51;;;;;;;5.20;4.50;;;18.40;99.90;;;;;;5062181;28;20460;-69
2021/03/22 12:50:24;;;;;;;4.90;4.40;;;18.60;99.90;;;;;;5070426;28;20968;-69
2021/03/22 12:52:51;;;;;;;6.13;4.60;;;17.80;99.90;;;;;;5075021;28;20890;-68
2021/03/22 12:55:18;;;;;;;5.83;5.17;;;17.20;99.90;;;;;;5090805;28;20399;-68
2021/03/22 12:57:43;;;;;;;5.33;4.80;;;16.60;99.90;;;;;;5085921;28;20487;-68
2021/03/22 13:00:11;;;;;;;4.93;4.53;;;15.70;99.90;;;;;;5069747;28;20907;-68
2021/03/22 13:02:39;;;;;;;6.27;4.93;;;15.20;99.90;;;;;;5068544;28;20202;-69
2021/03/22 13:05:18;;;;;;;6.60;4.90;;;14.90;99.90;;;;;;5070283;28;20418;-69
2021/03/22 13:07:44;;;;;;;5.60;5.10;;;14.70;99.90;;;;;;5069153;28;20916;-69
2021/03/22 13:10:10;;;;;;;6.37;4.60;;;14.10;99.90;;;;;;5070003;28;20426;-69
2021/03/22 13:12:36;;;;;;;5.67;4.67;;;14.30;99.90;;;;;;5069465;28;20256;-69
2021/03/22 13:15:03;;;;;;;5.07;3.97;;;14.50;99.90;;;;;;5069829;28;20531;-69
2021/03/22 13:17:32;;;;;;;4.43;4.00;;;14.30;99.90;;;;;;5070295;28;20181;-69
2021/03/22 13:19:58;;;;;;;4.77;4.00;;;14.50;99.90;;;;;;5069121;28;20433;-69
2021/03/22 13:22:25;;;;;;;4.77;4.37;;;15.30;99.90;;;;;;5070042;28;20457;-68
2021/03/22 13:24:53;;;;;;;6.53;4.27;;;15.90;99.90;;;;;;5070494;28;20477;-69
2021/03/22 13:27:20;;;;;;;5.03;4.53;;;16.30;99.90;;;;;;5069392;28;20735;-69